sensor_id;sensor_type;location;lat;lon;timestamp;pressure;altitude;pressure_sealevel;temperature;humidity
61674;BME280;47573;43.832;5.974;2023-05-25T00:06:21;94962.66;;;26.52;68.20
61674;BME280;47573;43.832;5.974;2023-05-25T00:13:03;94964.28;;;26.53;68.18
61674;BME280;47573;43.832;5.974;2023-05-25T00:19:44;94953.63;;;26.52;68.34
61674;BME280;47573;43.832;5.974;2023-05-25T00:26:24;94946.25;;;26.52;68.13
61674;BME280;47573;43.832;5.974;2023-05-25T00:33:06;94946.78;;;26.49;68.36
61674;BME280;47573;43.832;5.974;2023-05-25T00:39:47;94945.69;;;26.45;68.57
61674;BME280;47573;43.832;5.974;2023-05-25T00:46:28;94940.75;;;26.47;68.53
61674;BME280;47573;43.832;5.974;2023-05-25T00:53:11;94942.41;;;26.43;68.60
61674;BME280;47573;43.832;5.974;2023-05-25T00:59:53;94933.09;;;26.44;68.68
61674;BME280;47573;43.832;5.974;2023-05-25T01:06:35;94940.78;;;26.42;68.55
61674;BME280;47573;43.832;5.974;2023-05-25T01:13:19;94940.22;;;26.40;68.88
61674;BME280;47573;43.832;5.974;2023-05-25T01:19:59;94934.75;;;26.40;68.90
61674;BME280;47573;43.832;5.974;2023-05-25T01:26:46;94940.22;;;26.35;68.85
61674;BME280;47573;43.832;5.974;2023-05-25T01:33:29;94933.63;;;26.31;68.69
61674;BME280;47573;43.832;5.974;2023-05-25T01:40:11;94942.13;;;26.35;68.87
61674;BME280;47573;43.832;5.974;2023-05-25T01:46:58;94938.59;;;26.34;69.02
61674;BME280;47573;43.832;5.974;2023-05-25T01:53:43;94938.03;;;26.27;69.11
61674;BME280;47573;43.832;5.974;2023-05-25T02:00:26;94938.56;;;26.24;69.34
61674;BME280;47573;43.832;5.974;2023-05-25T02:07:09;94942.41;;;26.23;69.04
61674;BME280;47573;43.832;5.974;2023-05-25T02:13:49;94945.94;;;26.18;69.28
61674;BME280;47573;43.832;5.974;2023-05-25T02:20:30;94956.34;;;26.16;69.32
61674;BME280;47573;43.832;5.974;2023-05-25T02:27:12;94964.56;;;26.16;69.20
61674;BME280;47573;43.832;5.974;2023-05-25T02:33:52;94958.81;;;26.13;69.29
61674;BME280;47573;43.832;5.974;2023-05-25T02:40:32;94943.75;;;26.10;69.19
61674;BME280;47573;43.832;5.974;2023-05-25T02:47:15;94956.06;;;26.08;69.22
61674;BME280;47573;43.832;5.974;2023-05-25T02:53:56;94942.13;;;26.09;69.27
61674;BME280;47573;43.832;5.974;2023-05-25T03:00:36;94949.44;;;26.04;69.17
61674;BME280;47573;43.832;5.974;2023-05-25T03:07:18;94945.09;;;26.03;69.18
61674;BME280;47573;43.832;5.974;2023-05-25T03:13:58;94950.00;;;26.01;69.48
61674;BME280;47573;43.832;5.974;2023-05-25T03:20:39;94940.69;;;25.97;69.47
61674;BME280;47573;43.832;5.974;2023-05-25T03:27:21;94936.31;;;25.96;69.44
61674;BME280;47573;43.832;5.974;2023-05-25T03:34:02;94938.50;;;25.94;69.44
61674;BME280;47573;43.832;5.974;2023-05-25T03:40:42;94948.59;;;25.93;69.37
61674;BME280;47573;43.832;5.974;2023-05-25T03:47:24;94939.03;;;25.91;69.39
61674;BME280;47573;43.832;5.974;2023-05-25T03:54:05;94942.03;;;25.89;69.38
61674;BME280;47573;43.832;5.974;2023-05-25T04:00:45;94950.53;;;25.88;69.60
61674;BME280;47573;43.832;5.974;2023-05-25T04:07:27;94950.53;;;25.88;69.58
61674;BME280;47573;43.832;5.974;2023-05-25T04:14:08;94952.69;;;25.86;69.37
61674;BME280;47573;43.832;5.974;2023-05-25T04:20:48;94953.78;;;25.85;69.31
61674;BME280;47573;43.832;5.974;2023-05-25T04:27:30;94962.25;;;25.83;69.57
61674;BME280;47573;43.832;5.974;2023-05-25T04:34:10;94941.19;;;25.79;69.70
61674;BME280;47573;43.832;5.974;2023-05-25T04:40:51;94952.13;;;25.79;69.78
61674;BME280;47573;43.832;5.974;2023-05-25T04:47:33;94947.75;;;25.78;69.42
61674;BME280;47573;43.832;5.974;2023-05-25T04:54:13;94951.03;;;25.75;69.56
61674;BME280;47573;43.832;5.974;2023-05-25T05:00:54;94969.09;;;25.76;69.38
61674;BME280;47573;43.832;5.974;2023-05-25T05:07:36;94987.69;;;25.74;69.73
61674;BME280;47573;43.832;5.974;2023-05-25T05:14:16;94992.03;;;25.70;69.47
61674;BME280;47573;43.832;5.974;2023-05-25T05:20:57;95002.44;;;25.68;69.60
61674;BME280;47573;43.832;5.974;2023-05-25T05:27:39;95003.50;;;25.67;69.63
61674;BME280;47573;43.832;5.974;2023-05-25T05:34:19;94990.09;;;25.65;69.55
61674;BME280;47573;43.832;5.974;2023-05-25T05:41:00;95008.97;;;25.67;69.78
61674;BME280;47573;43.832;5.974;2023-05-25T05:47:42;95010.06;;;25.71;69.85
61674;BME280;47573;43.832;5.974;2023-05-25T05:54:22;95032.50;;;25.68;69.91
61674;BME280;47573;43.832;5.974;2023-05-25T06:01:03;95025.38;;;25.67;69.99
61674;BME280;47573;43.832;5.974;2023-05-25T06:07:44;95025.66;;;25.70;70.00
61674;BME280;47573;43.832;5.974;2023-05-25T06:14:25;95040.16;;;25.66;70.04
61674;BME280;47573;43.832;5.974;2023-05-25T06:21:05;95048.91;;;25.68;70.07
61674;BME280;47573;43.832;5.974;2023-05-25T06:27:48;95048.91;;;25.68;70.32
61674;BME280;47573;43.832;5.974;2023-05-25T06:34:28;95056.56;;;25.66;70.08
61674;BME280;47573;43.832;5.974;2023-05-25T06:41:09;95060.66;;;25.68;70.00
61674;BME280;47573;43.832;5.974;2023-05-25T06:47:51;95059.84;;;25.68;69.87
61674;BME280;47573;43.832;5.974;2023-05-25T06:54:32;95065.84;;;25.65;70.10
61674;BME280;47573;43.832;5.974;2023-05-25T07:01:12;95083.91;;;25.66;70.12
61674;BME280;47573;43.832;5.974;2023-05-25T07:07:54;95100.81;;;25.63;69.92
61674;BME280;47573;43.832;5.974;2023-05-25T07:14:34;95081.41;;;25.64;70.05
61674;BME280;47573;43.832;5.974;2023-05-25T07:21:15;95088.53;;;25.65;69.86
61674;BME280;47573;43.832;5.974;2023-05-25T07:27:57;95095.63;;;25.66;70.10
61674;BME280;47573;43.832;5.974;2023-05-25T07:34:37;95112.31;;;25.65;70.18
61674;BME280;47573;43.832;5.974;2023-05-25T07:41:17;95132.56;;;25.69;69.82
61674;BME280;47573;43.832;5.974;2023-05-25T07:47:59;95144.56;;;25.63;69.94
61674;BME280;47573;43.832;5.974;2023-05-25T07:54:40;95149.53;;;25.66;69.72
61674;BME280;47573;43.832;5.974;2023-05-25T08:01:20;95165.66;;;25.67;69.87
61674;BME280;47573;43.832;5.974;2023-05-25T08:08:02;95191.63;;;25.65;70.07
61674;BME280;47573;43.832;5.974;2023-05-25T08:14:43;95211.88;;;25.64;69.88
61674;BME280;47573;43.832;5.974;2023-05-25T08:21:23;95221.13;;;25.63;69.77
61674;BME280;47573;43.832;5.974;2023-05-25T08:28:05;95230.44;;;25.62;70.07
61674;BME280;47573;43.832;5.974;2023-05-25T08:34:46;95234.25;;;25.61;69.96
61674;BME280;47573;43.832;5.974;2023-05-25T08:41:27;95230.94;;;25.59;69.86
61674;BME280;47573;43.832;5.974;2023-05-25T08:48:12;95262.09;;;25.58;69.62
61674;BME280;47573;43.832;5.974;2023-05-25T08:54:56;95272.47;;;25.56;69.90
61674;BME280;47573;43.832;5.974;2023-05-25T09:01:45;95279.06;;;25.60;69.58
61674;BME280;47573;43.832;5.974;2023-05-25T09:08:27;95289.97;;;25.55;69.63
61674;BME280;47573;43.832;5.974;2023-05-25T09:15:09;95286.16;;;25.56;69.31
61674;BME280;47573;43.832;5.974;2023-05-25T09:21:50;95295.44;;;25.55;69.60
61674;BME280;47573;43.832;5.974;2023-05-25T09:28:32;95326.84;;;25.52;69.52
61674;BME280;47573;43.832;5.974;2023-05-25T09:35:13;95342.19;;;25.53;69.45
61674;BME280;47573;43.832;5.974;2023-05-25T09:41:55;95373.03;;;25.48;69.42
61674;BME280;47573;43.832;5.974;2023-05-25T09:48:37;95385.59;;;25.49;69.32
61674;BME280;47573;43.832;5.974;2023-05-25T09:55:17;95395.75;;;25.49;69.39
61674;BME280;47573;43.832;5.974;2023-05-25T10:01:59;95385.03;;;25.47;69.37
61674;BME280;47573;43.832;5.974;2023-05-25T10:08:42;95382.84;;;25.44;69.45
61674;BME280;47573;43.832;5.974;2023-05-25T10:15:23;95382.31;;;25.47;69.11
61674;BME280;47573;43.832;5.974;2023-05-25T10:22:09;95380.66;;;25.46;69.45
61674;BME280;47573;43.832;5.974;2023-05-25T10:28:55;95388.31;;;25.44;69.33
61674;BME280;47573;43.832;5.974;2023-05-25T10:35:39;95391.34;;;25.48;69.26
61674;BME280;47573;43.832;5.974;2023-05-25T10:42:20;95387.84;;;25.52;69.15
61674;BME280;47573;43.832;5.974;2023-05-25T10:49:02;95400.69;;;25.52;69.19
61674;BME280;47573;43.832;5.974;2023-05-25T10:55:48;95409.16;;;25.50;69.46
61674;BME280;47573;43.832;5.974;2023-05-25T11:02:28;95415.38;;;25.46;69.75
61674;BME280;47573;43.832;5.974;2023-05-25T11:09:24;95416.78;;;25.48;69.53
61674;BME280;47573;43.832;5.974;2023-05-25T11:16:19;95415.13;;;25.47;69.74
61674;BME280;47573;43.832;5.974;2023-05-25T11:23:22;95402.00;;;25.49;69.74
61674;BME280;47573;43.832;5.974;2023-05-25T11:30:06;95384.16;;;25.42;69.92
61674;BME280;47573;43.832;5.974;2023-05-25T11:36:46;95350.53;;;25.41;69.78
61674;BME280;47573;43.832;5.974;2023-05-25T11:43:27;95355.03;;;25.31;70.64
61674;BME280;47573;43.832;5.974;2023-05-25T11:50:14;95357.56;;;25.37;70.25
61674;BME280;47573;43.832;5.974;2023-05-25T11:56:55;95352.22;;;25.47;69.92
61674;BME280;47573;43.832;5.974;2023-05-25T12:03:36;95353.72;;;25.60;69.42
61674;BME280;47573;43.832;5.974;2023-05-25T12:10:18;95341.44;;;25.63;69.23
61674;BME280;47573;43.832;5.974;2023-05-25T12:16:58;95343.63;;;25.61;69.53
61674;BME280;47573;43.832;5.974;2023-05-25T12:23:39;95351.91;;;25.71;68.89
61674;BME280;47573;43.832;5.974;2023-05-25T12:30:26;95357.84;;;25.63;69.13
61674;BME280;47573;43.832;5.974;2023-05-25T12:37:16;95372.03;;;25.60;69.67
61674;BME280;47573;43.832;5.974;2023-05-25T12:43:57;95366.53;;;25.55;69.95
61674;BME280;47573;43.832;5.974;2023-05-25T12:50:55;95376.94;;;25.58;69.88
61674;BME280;47573;43.832;5.974;2023-05-25T12:57:36;95381.06;;;25.60;69.82
61674;BME280;47573;43.832;5.974;2023-05-25T13:04:16;95374.25;;;25.63;69.46
61674;BME280;47573;43.832;5.974;2023-05-25T13:10:58;95370.97;;;25.61;69.57
61674;BME280;47573;43.832;5.974;2023-05-25T13:17:40;95367.75;;;25.69;69.49
61674;BME280;47573;43.832;5.974;2023-05-25T13:24:21;95362.69;;;25.56;69.84
61674;BME280;47573;43.832;5.974;2023-05-25T13:31:03;95367.66;;;25.59;70.04
61674;BME280;47573;43.832;5.974;2023-05-25T13:37:44;95364.38;;;25.57;69.79
61674;BME280;47573;43.832;5.974;2023-05-25T13:44:24;95360.44;;;25.47;70.26
61674;BME280;47573;43.832;5.974;2023-05-25T13:51:06;95356.63;;;25.48;70.19
61674;BME280;47573;43.832;5.974;2023-05-25T13:57:46;95366.53;;;25.55;70.16
61674;BME280;47573;43.832;5.974;2023-05-25T14:04:27;95365.91;;;25.47;70.34
61674;BME280;47573;43.832;5.974;2023-05-25T14:11:09;95361.47;;;25.41;70.65
61674;BME280;47573;43.832;5.974;2023-05-25T14:17:49;95360.97;;;25.44;70.57
61674;BME280;47573;43.832;5.974;2023-05-25T14:24:29;95358.25;;;25.49;70.39
61674;BME280;47573;43.832;5.974;2023-05-25T14:31:11;95340.53;;;25.52;70.14
61674;BME280;47573;43.832;5.974;2023-05-25T14:37:52;95345.88;;;25.69;69.83
61674;BME280;47573;43.832;5.974;2023-05-25T14:44:32;95341.44;;;25.63;70.01
61674;BME280;47573;43.832;5.974;2023-05-25T14:51:14;95350.28;;;25.70;69.76
61674;BME280;47573;43.832;5.974;2023-05-25T14:57:55;95341.19;;;25.96;69.12
61674;BME280;47573;43.832;5.974;2023-05-25T15:04:35;95338.13;;;25.87;69.60
61674;BME280;47573;43.832;5.974;2023-05-25T15:11:17;95336.84;;;25.95;69.30
61674;BME280;47573;43.832;5.974;2023-05-25T15:17:58;95339.00;;;25.93;69.35
61674;BME280;47573;43.832;5.974;2023-05-25T15:24:38;95329.13;;;25.92;69.52
61674;BME280;47573;43.832;5.974;2023-05-25T15:31:20;95331.38;;;26.00;69.19
61674;BME280;47573;43.832;5.974;2023-05-25T15:38:00;95339.38;;;26.06;69.14
61674;BME280;47573;43.832;5.974;2023-05-25T15:44:41;95345.63;;;26.02;69.31
61674;BME280;47573;43.832;5.974;2023-05-25T15:51:23;95355.03;;;26.11;69.00
61674;BME280;47573;43.832;5.974;2023-05-25T15:58:03;95362.25;;;25.95;69.66
61674;BME280;47573;43.832;5.974;2023-05-25T16:04:43;95361.97;;;25.92;69.90
61674;BME280;47573;43.832;5.974;2023-05-25T16:11:25;95371.28;;;25.96;69.60
61674;BME280;47573;43.832;5.974;2023-05-25T16:18:06;95374.75;;;25.60;70.50
61674;BME280;47573;43.832;5.974;2023-05-25T16:24:46;95383.94;;;25.27;73.17
61674;BME280;47573;43.832;5.974;2023-05-25T16:31:28;95384.56;;;25.07;75.16
61674;BME280;47573;43.832;5.974;2023-05-25T16:38:09;95398.72;;;25.04;74.92
61674;BME280;47573;43.832;5.974;2023-05-25T16:44:49;95409.03;;;24.97;77.92
61674;BME280;47573;43.832;5.974;2023-05-25T16:58:11;95409.44;;;24.89;77.10
61674;BME280;47573;43.832;5.974;2023-05-25T17:04:52;95403.97;;;24.72;78.11
61674;BME280;47573;43.832;5.974;2023-05-25T17:11:34;95417.75;;;24.61;78.48
61674;BME280;47573;43.832;5.974;2023-05-25T17:18:14;95418.75;;;24.55;79.93
61674;BME280;47573;43.832;5.974;2023-05-25T17:24:55;95412.06;;;24.46;79.48
61674;BME280;47573;43.832;5.974;2023-05-25T17:31:37;95422.16;;;24.29;79.41
61674;BME280;47573;43.832;5.974;2023-05-25T17:38:17;95416.53;;;24.19;80.89
61674;BME280;47573;43.832;5.974;2023-05-25T17:44:57;95420.31;;;24.01;81.66
61674;BME280;47573;43.832;5.974;2023-05-25T17:51:39;95423.53;;;23.98;83.13
61674;BME280;47573;43.832;5.974;2023-05-25T17:58:20;95447.06;;;23.87;81.92
61674;BME280;47573;43.832;5.974;2023-05-25T18:05:00;95465.56;;;23.85;81.03
61674;BME280;47573;43.832;5.974;2023-05-25T18:11:42;95470.66;;;23.65;80.67
61674;BME280;47573;43.832;5.974;2023-05-25T18:18:22;95485.25;;;23.59;80.13
61674;BME280;47573;43.832;5.974;2023-05-25T18:25:04;95491.00;;;23.74;79.54
61674;BME280;47573;43.832;5.974;2023-05-25T18:31:46;95498.09;;;23.75;80.79
61674;BME280;47573;43.832;5.974;2023-05-25T18:38:27;95494.66;;;24.25;77.05
61674;BME280;47573;43.832;5.974;2023-05-25T18:45:08;95490.31;;;24.24;77.15
61674;BME280;47573;43.832;5.974;2023-05-25T18:51:50;95496.94;;;24.28;77.10
61674;BME280;47573;43.832;5.974;2023-05-25T18:58:31;95490.00;;;24.37;76.74
61674;BME280;47573;43.832;5.974;2023-05-25T19:05:11;95494.19;;;24.28;76.28
61674;BME280;47573;43.832;5.974;2023-05-25T19:11:53;95521.38;;;24.23;75.52
61674;BME280;47573;43.832;5.974;2023-05-25T19:18:34;95524.69;;;24.25;75.56
61674;BME280;47573;43.832;5.974;2023-05-25T19:25:14;95539.97;;;23.97;76.49
61674;BME280;47573;43.832;5.974;2023-05-25T19:31:56;95539.72;;;24.11;75.63
61674;BME280;47573;43.832;5.974;2023-05-25T19:38:37;95551.59;;;24.33;74.74
61674;BME280;47573;43.832;5.974;2023-05-25T19:45:17;95553.84;;;24.52;73.85
61674;BME280;47573;43.832;5.974;2023-05-25T19:51:59;95543.50;;;24.71;73.37
61674;BME280;47573;43.832;5.974;2023-05-25T19:58:40;95554.19;;;24.89;72.99
61674;BME280;47573;43.832;5.974;2023-05-25T20:05:20;95559.75;;;24.94;73.54
61674;BME280;47573;43.832;5.974;2023-05-25T20:12:02;95561.47;;;25.00;73.80
61674;BME280;47573;43.832;5.974;2023-05-25T20:18:43;95574.97;;;25.07;73.60
61674;BME280;47573;43.832;5.974;2023-05-25T20:25:23;95582.16;;;25.13;73.55
61674;BME280;47573;43.832;5.974;2023-05-25T20:32:05;95581.16;;;25.19;73.21
61674;BME280;47573;43.832;5.974;2023-05-25T20:38:46;95594.09;;;25.23;73.18
61674;BME280;47573;43.832;5.974;2023-05-25T20:45:26;95593.56;;;25.26;73.19
61674;BME280;47573;43.832;5.974;2023-05-25T20:52:08;95593.66;;;25.31;72.81
61674;BME280;47573;43.832;5.974;2023-05-25T20:58:49;95601.38;;;25.34;72.88
61674;BME280;47573;43.832;5.974;2023-05-25T21:05:29;95604.69;;;25.36;72.56
61674;BME280;47573;43.832;5.974;2023-05-25T21:12:11;95607.41;;;25.36;72.58
61674;BME280;47573;43.832;5.974;2023-05-25T21:18:52;95613.88;;;25.30;72.95
61674;BME280;47573;43.832;5.974;2023-05-25T21:25:32;95623.16;;;25.29;72.69
61674;BME280;47573;43.832;5.974;2023-05-25T21:32:14;95625.88;;;25.29;72.79
61674;BME280;47573;43.832;5.974;2023-05-25T21:38:55;95619.09;;;25.32;72.46
61674;BME280;47573;43.832;5.974;2023-05-25T21:45:35;95630.84;;;25.32;72.80
61674;BME280;47573;43.832;5.974;2023-05-25T21:52:17;95624.88;;;25.35;72.35
61674;BME280;47573;43.832;5.974;2023-05-25T21:58:58;95633.00;;;25.30;72.54
61674;BME280;47573;43.832;5.974;2023-05-25T22:05:38;95616.84;;;25.29;72.35
61674;BME280;47573;43.832;5.974;2023-05-25T22:12:20;95631.91;;;25.31;72.37
61674;BME280;47573;43.832;5.974;2023-05-25T22:19:00;95625.88;;;25.29;72.28
61674;BME280;47573;43.832;5.974;2023-05-25T22:25:41;95621.50;;;25.28;72.38
61674;BME280;47573;43.832;5.974;2023-05-25T22:32:23;95617.69;;;25.29;72.28
61674;BME280;47573;43.832;5.974;2023-05-25T22:39:03;95614.09;;;25.29;72.39
61674;BME280;47573;43.832;5.974;2023-05-25T22:45:43;95608.66;;;25.29;72.23
61674;BME280;47573;43.832;5.974;2023-05-25T22:52:25;95605.69;;;25.30;72.12
61674;BME280;47573;43.832;5.974;2023-05-25T22:59:06;95598.84;;;25.33;71.86
61674;BME280;47573;43.832;5.974;2023-05-25T23:05:46;95609.22;;;25.31;72.07
61674;BME280;47573;43.832;5.974;2023-05-25T23:12:28;95609.56;;;25.34;71.65
61674;BME280;47573;43.832;5.974;2023-05-25T23:19:09;95597.56;;;25.19;71.00
61674;BME280;47573;43.832;5.974;2023-05-25T23:25:49;95598.53;;;25.29;71.13
61674;BME280;47573;43.832;5.974;2023-05-25T23:32:31;95588.75;;;25.33;71.58
61674;BME280;47573;43.832;5.974;2023-05-25T23:39:11;95592.06;;;25.35;71.38
61674;BME280;47573;43.832;5.974;2023-05-25T23:45:52;95587.69;;;25.34;71.30
61674;BME280;47573;43.832;5.974;2023-05-25T23:52:34;95586.59;;;25.35;71.86
61674;BME280;47573;43.832;5.974;2023-05-25T23:59:14;95580.56;;;25.33;72.33
